Time;durP1;ratioP1;P1;durP2;ratioP2;P2;SDS_P1;SDS_P2;PMS_P1;PMS_P2;Temp;Humidity;BMP_temperature;BMP_pressure;BME280_temperature;BME280_humidity;BME280_pressure;Samples;Min_cycle;Max_cycle;Signal;HPM_P1;HPM_P2
2024/03/23 00:01:19;;;;;;;0.70;0.50;;;17.80;65.50;;;;;;5757751;24;20239;-85
2024/03/23 00:03:54;;;;;;;0.98;0.70;;;17.80;65.60;;;;;;5772258;24;20624;-83
2024/03/23 00:06:22;;;;;;;0.85;0.60;;;17.80;65.40;;;;;;5720759;25;20307;-83
2024/03/23 00:08:53;;;;;;;1.10;0.65;;;17.80;65.60;;;;;;5717600;25;20190;-83
2024/03/23 00:11:21;;;;;;;1.15;0.60;;;17.70;65.70;;;;;;5721172;24;20204;-83
2024/03/23 00:13:50;;;;;;;1.13;0.60;;;17.70;65.70;;;;;;5781273;24;20167;-83
2024/03/23 00:16:21;;;;;;;1.50;0.70;;;17.70;65.40;;;;;;5794754;24;20168;-84
2024/03/23 00:18:51;;;;;;;1.58;0.50;;;17.70;65.50;;;;;;5697890;25;20568;-83
2024/03/23 00:21:22;;;;;;;1.25;0.60;;;17.80;65.40;;;;;;5738426;25;20159;-83
2024/03/23 00:23:51;;;;;;;1.23;0.80;;;17.80;65.60;;;;;;5716466;25;20216;-84
2024/03/23 00:26:20;;;;;;;0.88;0.70;;;17.80;65.70;;;;;;5767711;24;20210;-83
2024/03/23 00:28:50;;;;;;;1.63;0.63;;;17.80;65.40;;;;;;5748435;24;20195;-83
2024/03/23 00:31:19;;;;;;;0.73;0.50;;;17.70;65.50;;;;;;5742170;25;20224;-83
2024/03/23 00:33:54;;;;;;;1.00;0.60;;;17.70;65.40;;;;;;5719940;25;20165;-84
2024/03/23 00:36:26;;;;;;;0.90;0.68;;;17.80;65.30;;;;;;5688364;25;20241;-83
2024/03/23 00:38:54;;;;;;;1.17;0.90;;;17.80;65.60;;;;;;5683793;24;20222;-83
2024/03/23 00:41:26;;;;;;;1.08;0.50;;;17.80;65.20;;;;;;5768859;24;20199;-83
2024/03/23 00:43:58;;;;;;;1.58;0.70;;;17.70;65.50;;;;;;5788334;24;20557;-83
2024/03/23 00:46:26;;;;;;;1.33;0.70;;;17.80;65.60;;;;;;5786407;24;20227;-83
2024/03/23 00:48:54;;;;;;;1.25;0.65;;;17.70;65.70;;;;;;5794657;24;20160;-84
2024/03/23 00:51:21;;;;;;;1.65;0.60;;;17.70;65.40;;;;;;5816417;24;20218;-83
2024/03/23 00:53:50;;;;;;;0.88;0.55;;;17.70;65.80;;;;;;5816936;24;20155;-83
2024/03/23 00:56:21;;;;;;;1.13;0.57;;;17.80;65.50;;;;;;5843390;24;20163;-83
2024/03/23 00:58:48;;;;;;;1.58;0.77;;;17.70;66.40;;;;;;5825053;24;20186;-83
2024/03/23 01:01:14;;;;;;;1.33;0.70;;;17.70;65.60;;;;;;5850067;24;20185;-83
2024/03/23 01:03:41;;;;;;;1.45;0.57;;;17.70;65.50;;;;;;5883814;24;20149;-83
2024/03/23 01:06:21;;;;;;;2.83;0.63;;;17.80;65.60;;;;;;5861070;24;20213;-83
2024/03/23 01:08:48;;;;;;;1.42;0.88;;;17.70;65.50;;;;;;5962696;23;20231;-83
2024/03/23 01:11:14;;;;;;;2.45;0.63;;;17.70;65.60;;;;;;6012251;23;20553;-83
2024/03/23 01:13:41;;;;;;;1.23;0.63;;;17.70;65.50;;;;;;6050796;23;20153;-82
2024/03/23 01:16:11;;;;;;;2.03;0.70;;;17.80;65.50;;;;;;6073792;23;20218;-83
2024/03/23 01:18:44;;;;;;;0.75;0.50;;;17.80;65.70;;;;;;6108466;23;20156;-83
2024/03/23 01:21:12;;;;;;;1.42;0.50;;;17.70;65.60;;;;;;6108841;23;20174;-84
2024/03/23 01:23:44;;;;;;;1.00;0.60;;;17.70;65.70;;;;;;6061169;23;20151;-82
2024/03/23 01:26:10;;;;;;;1.10;0.57;;;17.60;65.60;;;;;;6109856;23;20522;-83
2024/03/23 01:28:40;;;;;;;1.83;0.80;;;17.70;65.40;;;;;;6085680;23;20147;-85
2024/03/23 01:31:06;;;;;;;1.38;0.70;;;17.70;65.50;;;;;;6084271;23;20230;-83
2024/03/23 01:33:34;;;;;;;1.23;0.80;;;17.70;65.50;;;;;;6085309;23;20150;-83
2024/03/23 01:36:06;;;;;;;0.80;0.70;;;17.60;65.40;;;;;;6084941;23;20226;-84
2024/03/23 01:38:39;;;;;;;0.60;0.50;;;17.70;65.60;;;;;;6084083;23;20159;-83
2024/03/23 01:41:05;;;;;;;1.10;0.75;;;17.60;65.60;;;;;;6085259;23;20151;-83
2024/03/23 01:43:38;;;;;;;1.38;0.73;;;17.70;65.70;;;;;;6109714;23;20282;-83
2024/03/23 01:46:07;;;;;;;1.25;0.70;;;17.70;65.40;;;;;;6035643;23;20654;-83
2024/03/23 01:48:46;;;;;;;1.10;0.65;;;17.70;65.60;;;;;;6086280;23;20571;-84
2024/03/23 01:51:17;;;;;;;0.77;0.60;;;17.60;65.70;;;;;;6084147;23;20201;-83
2024/03/23 01:53:43;;;;;;;1.98;0.60;;;17.60;65.50;;;;;;6083879;23;20167;-83
2024/03/23 01:56:09;;;;;;;1.25;0.70;;;17.70;65.20;;;;;;6109135;23;20191;-83
2024/03/23 01:58:39;;;;;;;0.75;0.63;;;17.70;65.40;;;;;;6133527;23;20140;-82
2024/03/23 02:01:04;;;;;;;1.02;0.60;;;17.70;65.20;;;;;;6110806;23;20140;-83
2024/03/23 02:03:31;;;;;;;1.45;0.70;;;17.70;65.30;;;;;;6138303;23;20154;-83
2024/03/23 02:05:59;;;;;;;1.58;0.70;;;17.70;65.60;;;;;;6138910;23;20151;-83
2024/03/23 02:08:29;;;;;;;1.50;0.80;;;17.70;65.30;;;;;;6138946;23;20170;-83
2024/03/23 02:10:55;;;;;;;1.77;0.75;;;17.70;65.50;;;;;;6163192;23;20266;-84
2024/03/23 02:13:26;;;;;;;1.17;0.70;;;17.70;65.40;;;;;;6189844;23;20639;-85
2024/03/23 02:15:53;;;;;;;0.90;0.80;;;17.70;65.50;;;;;;6189503;23;20127;-83
2024/03/23 02:18:18;;;;;;;1.50;0.63;;;17.60;65.20;;;;;;6164690;23;20591;-84
2024/03/23 02:20:48;;;;;;;0.63;0.60;;;17.60;65.30;;;;;;6140273;23;20147;-83
2024/03/23 02:23:16;;;;;;;1.00;0.70;;;17.60;65.30;;;;;;6091149;23;20217;-83
2024/03/23 02:25:45;;;;;;;1.55;0.70;;;17.60;65.30;;;;;;6140366;23;20156;-83
2024/03/23 02:28:14;;;;;;;1.35;0.77;;;17.70;65.60;;;;;;6138432;23;20185;-83
2024/03/23 02:30:52;;;;;;;1.98;0.90;;;17.60;65.50;;;;;;6114451;23;20574;-83
2024/03/23 02:33:23;;;;;;;1.15;1.00;;;17.70;65.40;;;;;;6114871;23;20182;-84
2024/03/23 02:35:55;;;;;;;1.50;0.90;;;17.70;65.40;;;;;;6115299;23;20227;-84
2024/03/23 02:38:22;;;;;;;1.30;0.60;;;17.60;65.50;;;;;;6165534;23;20143;-82
2024/03/23 02:40:54;;;;;;;0.80;0.63;;;17.60;65.50;;;;;;6139759;23;20151;-83
2024/03/23 02:43:21;;;;;;;0.98;0.70;;;17.60;65.60;;;;;;6090468;23;20155;-83
2024/03/23 02:45:50;;;;;;;1.20;0.70;;;17.60;65.40;;;;;;6139717;23;20580;-83
2024/03/23 02:48:16;;;;;;;0.70;0.50;;;17.70;65.20;;;;;;6114386;23;20193;-83
2024/03/23 02:50:43;;;;;;;1.70;0.77;;;17.60;65.30;;;;;;6164729;23;20139;-83
2024/03/23 02:53:09;;;;;;;2.60;0.73;;;17.60;65.50;;;;;;6164236;23;20201;-83
2024/03/23 02:55:43;;;;;;;1.10;0.70;;;17.60;65.30;;;;;;6139336;23;20151;-83
2024/03/23 02:58:16;;;;;;;0.85;0.73;;;17.60;65.50;;;;;;6164087;23;20146;-83
2024/03/23 03:00:43;;;;;;;1.05;0.70;;;17.60;65.30;;;;;;6114194;23;20155;-83
2024/03/23 03:03:10;;;;;;;1.10;0.60;;;17.60;65.50;;;;;;6164382;23;20274;-83
2024/03/23 03:05:39;;;;;;;1.20;0.70;;;17.60;65.40;;;;;;6163750;23;20150;-84
2024/03/23 03:08:13;;;;;;;1.10;0.60;;;17.60;65.40;;;;;;6163878;23;20182;-83
2024/03/23 03:10:39;;;;;;;0.70;0.60;;;17.60;65.30;;;;;;6114317;23;20162;-83
2024/03/23 03:13:06;;;;;;;0.98;0.70;;;17.60;65.30;;;;;;6140037;23;20218;-83
2024/03/23 03:15:34;;;;;;;0.88;0.65;;;17.60;65.40;;;;;;6164476;23;20143;-83
2024/03/23 03:18:02;;;;;;;1.30;0.73;;;17.60;65.50;;;;;;6189624;23;20134;-83
2024/03/23 03:20:31;;;;;;;1.35;0.88;;;17.60;65.60;;;;;;6139797;23;20230;-83
2024/03/23 03:23:00;;;;;;;0.90;0.70;;;17.60;65.40;;;;;;6164150;23;20536;-83
2024/03/23 03:25:27;;;;;;;0.73;0.52;;;17.60;65.70;;;;;;6140648;23;20166;-83
2024/03/23 03:27:56;;;;;;;1.63;0.80;;;17.60;65.30;;;;;;6139212;23;20178;-83
2024/03/23 03:30:25;;;;;;;2.85;0.80;;;17.60;65.30;;;;;;6189265;23;20142;-83
2024/03/23 03:32:55;;;;;;;1.13;0.52;;;17.60;65.40;;;;;;6163678;23;20570;-84
2024/03/23 03:35:20;;;;;;;0.85;0.70;;;17.60;65.20;;;;;;6139728;23;20143;-83
2024/03/23 03:37:47;;;;;;;1.15;0.70;;;17.60;65.20;;;;;;6139744;23;20197;-84
2024/03/23 03:40:15;;;;;;;1.52;0.65;;;17.60;65.60;;;;;;6164057;23;20154;-83
2024/03/23 03:42:44;;;;;;;0.70;0.65;;;17.60;65.50;;;;;;6164204;23;20142;-83
2024/03/23 03:45:10;;;;;;;1.95;0.60;;;17.50;65.60;;;;;;6139717;23;20146;-83
2024/03/23 03:47:42;;;;;;;2.03;0.60;;;17.60;65.60;;;;;;6138895;23;20185;-83
2024/03/23 03:50:09;;;;;;;1.27;0.55;;;17.60;65.70;;;;;;6138903;23;20217;-83
2024/03/23 03:52:44;;;;;;;1.13;0.80;;;17.50;65.60;;;;;;6163439;23;20131;-83
2024/03/23 03:55:13;;;;;;;1.17;0.70;;;17.50;65.70;;;;;;6187516;23;20138;-83
2024/03/23 03:57:51;;;;;;;1.00;0.70;;;17.50;65.90;;;;;;6164434;23;20166;-84
2024/03/23 04:00:18;;;;;;;1.70;0.95;;;17.50;65.70;;;;;;6089033;23;20206;-85
2024/03/23 04:02:47;;;;;;;1.38;0.70;;;17.50;65.80;;;;;;6163555;23;20650;-83
2024/03/23 04:05:13;;;;;;;0.63;0.55;;;17.50;65.60;;;;;;6139168;23;20155;-83
2024/03/23 04:07:43;;;;;;;0.88;0.63;;;17.50;65.70;;;;;;6188622;23;20245;-83
2024/03/23 04:10:09;;;;;;;1.05;0.70;;;17.50;65.50;;;;;;6066460;23;20157;-83
2024/03/23 04:12:41;;;;;;;1.08;0.70;;;17.50;65.60;;;;;;6138443;23;20146;-83
2024/03/23 04:15:08;;;;;;;0.73;0.50;;;17.50;65.50;;;;;;6112999;23;20201;-83
2024/03/23 04:17:34;;;;;;;0.82;0.60;;;17.50;65.70;;;;;;6139034;23;20158;-83
2024/03/23 04:20:03;;;;;;;1.17;0.70;;;17.50;65.40;;;;;;6188789;23;20172;-83
2024/03/23 04:22:30;;;;;;;1.88;0.98;;;17.50;65.70;;;;;;6162959;23;20216;-82
2024/03/23 04:24:58;;;;;;;1.67;0.82;;;17.50;65.70;;;;;;6163233;23;20131;-83
2024/03/23 04:27:27;;;;;;;1.42;0.77;;;17.50;65.30;;;;;;6137651;23;20191;-83
2024/03/23 04:30:03;;;;;;;1.27;0.75;;;17.50;65.50;;;;;;6163097;23;20157;-83
2024/03/23 04:32:29;;;;;;;1.15;0.60;;;17.50;65.60;;;;;;6067166;23;20157;-83
2024/03/23 04:34:58;;;;;;;1.40;0.80;;;17.50;65.40;;;;;;6138420;23;20146;-83
2024/03/23 04:37:26;;;;;;;2.40;0.73;;;17.50;65.60;;;;;;6089603;23;20151;-83
2024/03/23 04:39:54;;;;;;;1.30;0.63;;;17.50;65.60;;;;;;6112936;23;20219;-83
2024/03/23 04:42:23;;;;;;;2.03;0.88;;;17.50;65.60;;;;;;6066923;23;20218;-83
2024/03/23 04:44:49;;;;;;;1.27;0.80;;;17.50;65.60;;;;;;6164253;23;20202;-85
2024/03/23 04:47:15;;;;;;;0.95;0.60;;;17.50;65.60;;;;;;6164893;23;20177;-83
2024/03/23 04:49:42;;;;;;;1.27;0.57;;;17.50;65.10;;;;;;6162001;23;20155;-83
2024/03/23 04:52:09;;;;;;;0.93;0.63;;;17.50;65.40;;;;;;6138462;23;20249;-83
2024/03/23 04:54:37;;;;;;;1.08;0.55;;;17.40;65.40;;;;;;6138364;23;20154;-83
2024/03/23 04:57:09;;;;;;;1.67;0.70;;;17.50;65.40;;;;;;6188066;23;20159;-83
2024/03/23 04:59:35;;;;;;;1.20;0.80;;;17.50;65.60;;;;;;6138411;23;20151;-83
2024/03/23 05:02:00;;;;;;;1.35;0.80;;;17.50;65.30;;;;;;6158139;23;20191;-84
2024/03/23 05:04:28;;;;;;;1.20;0.70;;;17.50;65.20;;;;;;6134630;23;20132;-83
2024/03/23 05:07:01;;;;;;;1.17;0.80;;;17.60;65.40;;;;;;6109341;23;20242;-83
2024/03/23 05:09:30;;;;;;;1.25;0.70;;;17.50;65.30;;;;;;6108906;23;20230;-83
2024/03/23 05:11:57;;;;;;;1.38;0.70;;;17.50;65.70;;;;;;6134653;23;20192;-83
2024/03/23 05:14:29;;;;;;;1.48;0.80;;;17.50;65.50;;;;;;6158909;23;20163;-83
2024/03/23 05:16:55;;;;;;;0.85;0.70;;;17.50;65.30;;;;;;6108875;23;20147;-83
2024/03/23 05:19:22;;;;;;;1.10;0.80;;;17.60;65.40;;;;;;6133813;23;20148;-83
2024/03/23 05:21:50;;;;;;;1.70;0.80;;;17.50;65.40;;;;;;6108868;23;20139;-83
2024/03/23 05:24:16;;;;;;;1.08;0.60;;;17.50;65.60;;;;;;6109345;23;20174;-83
2024/03/23 05:26:46;;;;;;;1.00;0.63;;;17.50;65.40;;;;;;6108670;23;20179;-83
2024/03/23 05:29:19;;;;;;;1.13;0.60;;;17.50;65.40;;;;;;6132696;23;20234;-82
2024/03/23 05:31:52;;;;;;;0.65;0.63;;;17.50;65.50;;;;;;6107249;23;20151;-83
2024/03/23 05:34:25;;;;;;;1.10;0.60;;;17.50;65.40;;;;;;6107718;23;20159;-83
2024/03/23 05:37:00;;;;;;;0.95;0.68;;;17.60;64.90;;;;;;6132403;23;20186;-83
2024/03/23 05:39:26;;;;;;;2.22;0.70;;;17.60;65.00;;;;;;6106844;23;20205;-83
2024/03/23 05:41:55;;;;;;;1.52;0.70;;;17.60;65.20;;;;;;6107990;23;20139;-83
2024/03/23 05:44:20;;;;;;;1.17;0.70;;;17.60;65.00;;;;;;6107871;23;20139;-83
2024/03/23 05:46:51;;;;;;;0.90;0.60;;;17.60;64.80;;;;;;6110330;23;20186;-83
2024/03/23 05:49:19;;;;;;;1.58;0.82;;;17.60;65.10;;;;;;6135032;23;20136;-84
2024/03/23 05:51:50;;;;;;;1.80;0.68;;;17.60;64.90;;;;;;6110565;23;20143;-83
2024/03/23 05:54:20;;;;;;;2.22;0.93;;;17.60;64.70;;;;;;6133167;23;20491;-83
2024/03/23 05:56:57;;;;;;;2.83;0.80;;;17.60;65.70;;;;;;6110041;23;20167;-83
2024/03/23 05:59:24;;;;;;;1.42;0.70;;;17.70;64.20;;;;;;6134162;23;20209;-83
2024/03/23 06:01:50;;;;;;;1.20;0.60;;;17.70;64.40;;;;;;6146723;23;20252;-83
2024/03/23 06:04:16;;;;;;;0.95;0.70;;;17.70;64.30;;;;;;6189385;23;20139;-84
2024/03/23 06:06:44;;;;;;;1.67;0.75;;;17.70;64.50;;;;;;6166041;23;20206;-83
2024/03/23 06:09:14;;;;;;;2.58;0.80;;;17.70;64.50;;;;;;6190505;23;20650;-83
2024/03/23 06:11:40;;;;;;;1.75;0.90;;;17.70;64.40;;;;;;6189897;23;20143;-82
2024/03/23 06:14:06;;;;;;;2.08;0.63;;;17.70;64.50;;;;;;6166283;23;20189;-83
2024/03/23 06:16:32;;;;;;;1.95;0.88;;;17.70;65.30;;;;;;6192033;23;20143;-83
2024/03/23 06:19:00;;;;;;;2.55;0.70;;;17.80;64.20;;;;;;6140702;23;20143;-83
2024/03/23 06:21:25;;;;;;;1.65;0.60;;;17.70;64.50;;;;;;6140292;23;20169;-83
2024/03/23 06:23:54;;;;;;;1.90;0.70;;;17.70;64.40;;;;;;6138462;23;20182;-85
2024/03/23 06:26:21;;;;;;;1.55;0.90;;;17.80;64.00;;;;;;6188272;23;20127;-83
2024/03/23 06:28:47;;;;;;;2.22;0.90;;;17.80;64.10;;;;;;6141922;23;20149;-83
2024/03/23 06:31:14;;;;;;;1.38;0.80;;;17.80;64.00;;;;;;6147619;23;20142;-83
2024/03/23 06:34:01;;;;;;;1.20;0.70;;;17.90;63.80;;;;;;6162665;23;20552;-83
2024/03/23 06:36:32;;;;;;;1.20;0.70;;;17.80;63.80;;;;;;6155828;23;20590;-83
2024/03/23 06:39:19;;;;;;;1.05;0.70;;;17.80;63.70;;;;;;6111832;23;20527;-83
2024/03/23 06:41:56;;;;;;;1.30;0.60;;;17.80;63.80;;;;;;6130873;23;20175;-83
2024/03/23 06:44:28;;;;;;;1.02;0.85;;;17.90;63.70;;;;;;6155455;23;20167;-83
2024/03/23 06:47:00;;;;;;;1.63;0.70;;;17.90;63.50;;;;;;6082358;23;20699;-83
2024/03/23 06:49:34;;;;;;;1.67;0.98;;;18.00;63.60;;;;;;6107586;23;20151;-84
2024/03/23 06:52:02;;;;;;;1.40;0.80;;;18.00;63.40;;;;;;6092025;23;20151;-81
2024/03/23 06:54:29;;;;;;;1.67;0.80;;;17.90;63.60;;;;;;6134754;23;20222;-81
2024/03/23 06:57:00;;;;;;;1.38;0.68;;;17.80;63.60;;;;;;6161390;23;20132;-83
2024/03/23 06:59:33;;;;;;;1.60;0.70;;;17.80;63.70;;;;;;6160016;23;20199;-83
2024/03/23 07:01:58;;;;;;;0.80;0.70;;;17.80;63.80;;;;;;6151199;23;20212;-83
2024/03/23 07:04:26;;;;;;;1.55;0.80;;;17.80;63.80;;;;;;6107745;23;20156;-83
2024/03/23 07:06:53;;;;;;;1.30;0.80;;;17.80;63.80;;;;;;6131660;23;20695;-83
2024/03/23 07:09:19;;;;;;;0.85;0.50;;;17.80;63.80;;;;;;6106837;23;20160;-82
2024/03/23 07:11:48;;;;;;;1.20;0.60;;;17.80;63.90;;;;;;6106291;23;20196;-83
2024/03/23 07:14:16;;;;;;;0.75;0.60;;;17.80;63.60;;;;;;6083757;23;20600;-82
2024/03/23 07:16:43;;;;;;;1.35;0.60;;;17.80;63.60;;;;;;6107231;23;20156;-83
2024/03/23 07:19:08;;;;;;;1.08;0.70;;;17.90;63.80;;;;;;6103506;23;20212;-82
2024/03/23 07:21:35;;;;;;;1.58;0.88;;;17.80;63.80;;;;;;6101288;23;20152;-83
2024/03/23 07:24:02;;;;;;;1.02;0.65;;;17.80;63.90;;;;;;6100944;23;20147;-83
2024/03/23 07:26:28;;;;;;;1.15;0.65;;;17.80;63.90;;;;;;6127635;23;20178;-83
2024/03/23 07:28:58;;;;;;;1.58;0.75;;;17.70;63.90;;;;;;6083728;23;20575;-83
2024/03/23 07:31:27;;;;;;;1.45;0.80;;;17.80;64.20;;;;;;6106076;23;20163;-83
2024/03/23 07:33:55;;;;;;;1.15;0.65;;;17.70;64.00;;;;;;6058097;23;20160;-82
2024/03/23 07:36:22;;;;;;;2.10;0.90;;;17.70;64.10;;;;;;6082420;23;20155;-82
2024/03/23 07:38:50;;;;;;;1.75;0.70;;;17.70;64.10;;;;;;6082345;23;20170;-83
2024/03/23 07:41:22;;;;;;;1.45;0.70;;;17.70;64.00;;;;;;6057791;23;20583;-83
2024/03/23 07:43:51;;;;;;;1.15;0.80;;;17.80;64.20;;;;;;6058668;23;20226;-82
2024/03/23 07:46:17;;;;;;;1.20;0.80;;;17.70;64.10;;;;;;6083090;23;20152;-82
2024/03/23 07:48:49;;;;;;;1.60;0.80;;;17.70;64.10;;;;;;6085123;23;20174;-83
2024/03/23 07:51:21;;;;;;;0.98;0.68;;;17.70;64.20;;;;;;6110995;23;20203;-83
2024/03/23 07:53:48;;;;;;;1.17;0.52;;;17.70;64.10;;;;;;6106709;23;20777;-83
2024/03/23 07:56:19;;;;;;;1.08;0.80;;;17.70;64.10;;;;;;6111253;23;20132;-82
2024/03/23 07:58:50;;;;;;;3.13;0.90;;;17.80;64.00;;;;;;6062740;23;20476;-82
2024/03/23 08:01:16;;;;;;;1.15;0.75;;;17.70;64.00;;;;;;6089957;23;20152;-83
2024/03/23 08:03:44;;;;;;;2.20;0.63;;;17.60;64.20;;;;;;6168086;23;20540;-83
2024/03/23 08:06:12;;;;;;;2.80;1.00;;;17.70;64.20;;;;;;6168389;23;20131;-82
2024/03/23 08:08:43;;;;;;;2.78;0.80;;;17.60;64.10;;;;;;6143471;23;20165;-83
2024/03/23 08:11:10;;;;;;;1.40;0.68;;;17.70;64.40;;;;;;6167176;23;20150;-83
2024/03/23 08:13:39;;;;;;;2.40;0.82;;;17.70;63.70;;;;;;6135793;23;20158;-81
2024/03/23 08:16:05;;;;;;;3.88;1.08;;;17.70;63.80;;;;;;6159660;23;20191;-81
2024/03/23 08:18:31;;;;;;;1.83;0.77;;;17.70;63.80;;;;;;6184192;23;20143;-81
2024/03/23 08:21:00;;;;;;;2.20;0.65;;;17.70;63.20;;;;;;6135014;23;20146;-82
2024/03/23 08:23:26;;;;;;;2.88;0.90;;;17.80;63.10;;;;;;6135177;23;20187;-82
2024/03/23 08:25:52;;;;;;;4.10;0.98;;;17.80;63.20;;;;;;6159373;23;20139;-81
2024/03/23 08:28:18;;;;;;;1.50;0.85;;;17.80;62.70;;;;;;6134920;23;20184;-81
2024/03/23 08:30:44;;;;;;;3.53;0.88;;;17.90;62.50;;;;;;6183708;23;20135;-82
2024/03/23 08:33:10;;;;;;;1.63;0.77;;;17.90;62.70;;;;;;6158825;23;20131;-81
2024/03/23 08:35:37;;;;;;;1.67;0.70;;;17.90;62.70;;;;;;6159735;23;20211;-82
2024/03/23 08:38:03;;;;;;;1.55;0.68;;;17.80;63.10;;;;;;6159488;23;20154;-81
2024/03/23 08:40:28;;;;;;;1.58;0.82;;;17.80;63.10;;;;;;6159238;23;20186;-82
2024/03/23 08:42:54;;;;;;;2.50;0.90;;;17.80;63.00;;;;;;6159960;23;20485;-82
2024/03/23 08:45:20;;;;;;;4.35;0.75;;;17.80;63.20;;;;;;6135709;23;20147;-81
2024/03/23 08:47:46;;;;;;;2.22;0.60;;;17.80;63.10;;;;;;6185216;23;20570;-82
2024/03/23 08:50:11;;;;;;;2.40;0.75;;;17.90;62.60;;;;;;6185425;23;20221;-82
2024/03/23 08:52:38;;;;;;;3.17;0.80;;;17.90;63.00;;;;;;6160007;23;20210;-83
2024/03/23 08:55:04;;;;;;;3.30;0.88;;;18.00;62.80;;;;;;6135044;23;20161;-81
2024/03/23 08:57:30;;;;;;;1.27;0.73;;;17.90;62.10;;;;;;6136117;23;20154;-81
2024/03/23 08:59:58;;;;;;;4.68;1.15;;;18.00;62.50;;;;;;6187533;23;20247;-84
2024/03/23 09:02:24;;;;;;;3.92;0.82;;;18.10;61.50;;;;;;6189817;23;20219;-82
2024/03/23 09:04:50;;;;;;;3.03;0.85;;;18.10;62.80;;;;;;6160890;23;20150;-81
2024/03/23 09:07:16;;;;;;;5.30;1.08;;;18.20;62.70;;;;;;6129537;23;20193;-82
2024/03/23 09:09:41;;;;;;;3.53;1.00;;;18.20;62.90;;;;;;6129750;23;20151;-82
2024/03/23 09:12:07;;;;;;;3.15;1.10;;;18.30;62.30;;;;;;6129815;23;20155;-81
2024/03/23 09:14:33;;;;;;;6.45;0.95;;;18.30;62.40;;;;;;6128838;23;20139;-81
2024/03/23 09:16:59;;;;;;;3.00;0.73;;;18.20;62.60;;;;;;6129205;23;20155;-81
2024/03/23 09:19:28;;;;;;;3.47;0.85;;;18.10;62.00;;;;;;6129609;23;20239;-81
2024/03/23 09:21:54;;;;;;;2.20;0.77;;;18.10;62.70;;;;;;6130665;23;20182;-81
2024/03/23 09:24:24;;;;;;;5.70;0.90;;;18.10;62.70;;;;;;6134417;23;20252;-83
2024/03/23 09:26:52;;;;;;;9.10;0.85;;;18.20;63.20;;;;;;6109894;23;20278;-82
2024/03/23 09:29:41;;;;;;;7.85;1.00;;;18.10;63.40;;;;;;6132934;23;20139;-82
2024/03/23 09:32:07;;;;;;;5.13;1.08;;;18.10;62.50;;;;;;6039956;23;20713;-82
2024/03/23 09:34:35;;;;;;;4.00;1.20;;;18.20;62.90;;;;;;5984538;24;20159;-82
2024/03/23 09:37:01;;;;;;;3.58;0.80;;;18.20;63.00;;;;;;5983782;24;20199;-81
2024/03/23 09:39:41;;;;;;;5.93;0.85;;;18.30;61.70;;;;;;5996639;23;20150;-84
2024/03/23 09:42:18;;;;;;;5.88;0.90;;;18.30;62.80;;;;;;6019734;23;20167;-82
2024/03/23 09:44:46;;;;;;;3.08;0.90;;;18.40;62.10;;;;;;6019038;23;20181;-80
2024/03/23 09:47:14;;;;;;;3.30;0.90;;;18.50;62.00;;;;;;6044254;23;20510;-83
2024/03/23 09:49:47;;;;;;;4.57;0.90;;;18.60;61.80;;;;;;6043808;23;20227;-83
2024/03/23 09:52:13;;;;;;;3.78;1.10;;;18.60;62.10;;;;;;6043166;23;20162;-82
2024/03/23 09:54:39;;;;;;;3.67;0.93;;;18.60;60.60;;;;;;6042126;23;20284;-83
2024/03/23 09:57:05;;;;;;;1.40;0.60;;;18.70;61.20;;;;;;6016384;23;20147;-82
2024/03/23 09:59:35;;;;;;;6.35;1.00;;;18.70;61.00;;;;;;6013687;23;20631;-82
2024/03/23 10:02:10;;;;;;;3.30;0.80;;;18.60;60.90;;;;;;6013771;23;20202;-81
2024/03/23 10:04:38;;;;;;;1.42;0.68;;;18.60;61.30;;;;;;6038260;23;20158;-81
2024/03/23 10:07:12;;;;;;;3.33;0.80;;;18.60;59.70;;;;;;6067527;23;20183;-82
2024/03/23 10:09:41;;;;;;;6.55;1.00;;;18.60;59.80;;;;;;6130688;23;20214;-84
2024/03/23 10:12:13;;;;;;;5.57;0.88;;;18.60;61.10;;;;;;6130218;23;20475;-83
2024/03/23 10:14:40;;;;;;;2.38;0.80;;;18.40;60.30;;;;;;6128793;23;20206;-83
2024/03/23 10:17:17;;;;;;;5.10;1.00;;;18.40;62.40;;;;;;6128852;23;20140;-84
2024/03/23 10:19:44;;;;;;;4.63;0.90;;;18.40;62.20;;;;;;6129872;23;20256;-83
2024/03/23 10:22:12;;;;;;;3.97;1.50;;;18.30;62.20;;;;;;6104953;23;20235;-83
2024/03/23 10:24:48;;;;;;;2.50;1.00;;;18.30;61.60;;;;;;6128404;23;20480;-83
2024/03/23 10:27:18;;;;;;;2.17;1.00;;;18.40;61.50;;;;;;6125593;23;20360;-83
2024/03/23 10:29:52;;;;;;;3.13;0.68;;;18.40;62.90;;;;;;6099548;23;20592;-84
2024/03/23 10:32:18;;;;;;;4.03;0.70;;;18.40;61.10;;;;;;6024590;23;20175;-83
2024/03/23 10:34:52;;;;;;;3.17;0.95;;;18.40;60.60;;;;;;6026021;23;20162;-83
2024/03/23 10:37:20;;;;;;;3.40;0.90;;;18.40;62.10;;;;;;6027689;23;20161;-83
2024/03/23 10:39:50;;;;;;;1.95;0.70;;;18.50;60.80;;;;;;5992890;23;20154;-82
2024/03/23 10:42:19;;;;;;;2.50;0.70;;;18.60;59.80;;;;;;5907010;24;20161;-84
2024/03/23 10:44:55;;;;;;;4.03;1.10;;;18.60;61.40;;;;;;5880526;24;20172;-82
2024/03/23 10:47:27;;;;;;;2.63;0.75;;;18.50;61.70;;;;;;5884193;24;20192;-83
2024/03/23 10:49:53;;;;;;;1.73;0.70;;;18.50;62.20;;;;;;5882184;24;20173;-83
2024/03/23 10:52:21;;;;;;;2.22;0.68;;;18.50;62.30;;;;;;5884249;24;20164;-84
2024/03/23 10:54:47;;;;;;;3.05;0.82;;;18.40;61.90;;;;;;5882156;24;20566;-83
2024/03/23 10:57:16;;;;;;;2.85;0.82;;;18.40;61.90;;;;;;5892406;24;20170;-82
2024/03/23 10:59:42;;;;;;;2.55;0.70;;;18.40;62.70;;;;;;5917894;24;20468;-83
2024/03/23 11:02:08;;;;;;;2.13;0.77;;;18.40;63.00;;;;;;5930507;23;20199;-81
2024/03/23 11:04:38;;;;;;;2.60;0.77;;;18.40;61.90;;;;;;5992366;23;20211;-81
2024/03/23 11:07:33;;;;;;;3.00;1.00;;;18.40;62.90;;;;;;5991235;23;20171;-81
2024/03/23 11:09:59;;;;;;;4.30;0.68;;;18.40;62.10;;;;;;6002853;23;20648;-81
2024/03/23 11:12:26;;;;;;;2.13;0.60;;;18.30;62.10;;;;;;6050831;23;20668;-82
2024/03/23 11:15:01;;;;;;;2.50;0.77;;;18.40;62.80;;;;;;6051064;23;20148;-80
2024/03/23 11:17:30;;;;;;;3.03;0.70;;;18.40;62.10;;;;;;6074001;23;20168;-81
2024/03/23 11:19:59;;;;;;;3.45;0.75;;;18.40;62.90;;;;;;6051166;23;20145;-81
2024/03/23 11:22:47;;;;;;;4.35;0.85;;;18.40;61.50;;;;;;6049058;23;20150;-81
2024/03/23 11:25:17;;;;;;;5.60;0.70;;;18.40;63.00;;;;;;6086103;23;20147;-81
2024/03/23 11:27:45;;;;;;;5.13;1.02;;;18.40;62.40;;;;;;6137337;23;20193;-81
2024/03/23 11:30:22;;;;;;;3.05;0.93;;;18.40;62.90;;;;;;6078369;23;20153;-81
2024/03/23 11:33:21;;;;;;;4.20;0.90;;;18.40;63.00;;;;;;6056771;23;20156;-82
2024/03/23 11:35:47;;;;;;;2.42;0.80;;;18.40;62.50;;;;;;5998505;23;20168;-81
2024/03/23 11:38:21;;;;;;;2.10;0.77;;;18.40;61.90;;;;;;6022049;23;20158;-83
2024/03/23 11:40:49;;;;;;;1.85;0.70;;;18.40;62.70;;;;;;5964344;24;20193;-83
2024/03/23 11:43:16;;;;;;;4.95;0.80;;;18.40;61.60;;;;;;5986578;24;20151;-81
2024/03/23 11:45:47;;;;;;;4.47;0.70;;;18.40;62.20;;;;;;5995687;23;20643;-82
2024/03/23 11:48:21;;;;;;;5.43;1.00;;;18.40;62.70;;;;;;5996014;23;20635;-82
2024/03/23 11:50:54;;;;;;;3.08;0.90;;;18.40;63.20;;;;;;5971869;23;20154;-83
2024/03/23 11:53:27;;;;;;;3.40;0.80;;;18.40;63.20;;;;;;5993117;23;20154;-82
2024/03/23 11:56:02;;;;;;;1.38;0.70;;;18.40;62.90;;;;;;6012878;23;20195;-82
2024/03/23 12:01:46;;;;;;;3.38;0.70;;;18.40;62.70;;;;;;5922736;24;20684;-80
2024/03/23 12:04:24;;;;;;;3.50;0.82;;;18.40;62.80;;;;;;5904732;24;20169;-82
2024/03/23 12:07:21;;;;;;;2.78;1.05;;;18.40;63.90;;;;;;5908656;24;20377;-81
2024/03/23 12:10:14;;;;;;;7.65;1.13;;;18.40;63.80;;;;;;5895636;24;20179;-82
2024/03/23 12:12:44;;;;;;;3.75;0.70;;;18.50;63.70;;;;;;5926354;24;20239;-81
2024/03/23 12:15:12;;;;;;;5.25;0.88;;;18.50;64.00;;;;;;5888355;24;20168;-81
2024/03/23 12:17:38;;;;;;;2.15;0.75;;;18.50;64.40;;;;;;5910342;24;20228;-81
2024/03/23 12:20:05;;;;;;;2.78;0.80;;;18.40;64.30;;;;;;5933794;24;20160;-81
2024/03/23 12:22:47;;;;;;;6.20;1.30;;;18.60;63.90;;;;;;5909993;24;20213;-81
2024/03/23 12:25:32;;;;;;;1.83;0.75;;;18.60;64.10;;;;;;5909805;24;20168;-83
2024/03/23 12:28:00;;;;;;;3.05;0.95;;;18.70;63.60;;;;;;5929364;24;20177;-81
2024/03/23 12:30:26;;;;;;;9.40;0.90;;;18.70;63.50;;;;;;5931030;24;20149;-81
2024/03/23 12:32:55;;;;;;;4.57;1.08;;;18.60;63.90;;;;;;5928928;24;20161;-81
2024/03/23 12:35:25;;;;;;;3.25;1.05;;;18.60;63.50;;;;;;5927465;24;20187;-82
2024/03/23 12:38:02;;;;;;;3.50;0.82;;;18.60;63.10;;;;;;5926735;23;21257;-82
2024/03/23 12:40:28;;;;;;;6.22;1.00;;;18.70;63.80;;;;;;6131386;23;20234;-81
2024/03/23 12:43:01;;;;;;;6.38;1.05;;;18.70;63.60;;;;;;6108428;23;20178;-83
2024/03/23 12:45:30;;;;;;;5.38;0.90;;;18.70;63.60;;;;;;6132994;23;20151;-82
2024/03/23 12:48:00;;;;;;;2.92;0.88;;;18.70;63.50;;;;;;6132436;23;20171;-81
2024/03/23 12:50:32;;;;;;;4.82;0.90;;;18.70;63.40;;;;;;6106642;23;20161;-83
2024/03/23 12:53:02;;;;;;;5.93;0.90;;;18.60;63.40;;;;;;6107556;23;20171;-82
2024/03/23 12:55:35;;;;;;;4.13;0.80;;;18.70;63.90;;;;;;6132969;23;20147;-83
2024/03/23 12:58:02;;;;;;;3.88;0.80;;;18.70;64.00;;;;;;6073963;23;20878;-81
2024/03/23 13:00:27;;;;;;;4.32;1.15;;;18.70;64.00;;;;;;6048827;23;20184;-82
2024/03/23 13:02:53;;;;;;;5.35;1.10;;;18.70;63.60;;;;;;6066421;23;20231;-82